Time;durP1;ratioP1;P1;durP2;ratioP2;P2;SDS_P1;SDS_P2;PMS_P1;PMS_P2;Temp;Humidity;BMP_temperature;BMP_pressure;BME280_temperature;BME280_humidity;BME280_pressure;Samples;Min_cycle;Max_cycle;Signal;HPM_P1;HPM_P2
2023/05/27 00:04:31;;;;;;;8.03;2.50;;;16.50;63.50;;;;;;5082728;22;20523;-85
2023/05/27 00:07:33;;;;;;;6.73;2.80;;;16.40;63.10;;;;;;5028404;28;20484;-82
2023/05/27 00:10:38;;;;;;;8.10;3.10;;;16.20;63.90;;;;;;5023670;28;20453;-83
2023/05/27 00:13:25;;;;;;;5.70;2.70;;;16.10;64.90;;;;;;5018990;28;20461;-84
2023/05/27 00:16:12;;;;;;;5.23;2.50;;;16.00;65.40;;;;;;5014668;28;20471;-84
2023/05/27 00:18:52;;;;;;;5.30;2.40;;;16.10;65.30;;;;;;5028308;28;20465;-84
2023/05/27 00:21:29;;;;;;;8.10;2.63;;;16.00;65.20;;;;;;5015688;28;20458;-83
2023/05/27 00:24:01;;;;;;;8.90;3.00;;;16.00;65.00;;;;;;5020883;28;20513;-84
2023/05/27 00:26:45;;;;;;;6.63;2.70;;;15.90;65.50;;;;;;5018668;28;20548;-83
2023/05/27 00:29:20;;;;;;;3.30;2.63;;;15.70;66.10;;;;;;5021461;28;21001;-83
2023/05/27 00:32:06;;;;;;;10.63;2.90;;;15.70;66.80;;;;;;5018839;28;20449;-83
2023/05/27 00:34:49;;;;;;;10.80;3.50;;;15.70;67.30;;;;;;5015499;28;20459;-83
2023/05/27 00:37:21;;;;;;;10.37;3.17;;;15.90;67.40;;;;;;5007208;28;20451;-84
2023/05/27 00:39:54;;;;;;;5.20;2.27;;;15.70;66.70;;;;;;5005901;28;20462;-82
2023/05/27 00:42:31;;;;;;;10.10;3.17;;;15.70;66.80;;;;;;5004970;28;20453;-83
2023/05/27 00:45:10;;;;;;;5.20;2.33;;;15.50;67.00;;;;;;5007041;28;20478;-84
2023/05/27 00:47:46;;;;;;;3.70;2.77;;;15.60;67.20;;;;;;5024765;28;20469;-83
2023/05/27 00:50:18;;;;;;;4.23;2.50;;;15.60;67.70;;;;;;5027501;28;20944;-83
2023/05/27 00:52:48;;;;;;;6.03;3.27;;;15.50;68.10;;;;;;5026721;28;20442;-82
2023/05/27 00:55:23;;;;;;;7.50;2.43;;;15.60;68.60;;;;;;5031647;28;20481;-84
2023/05/27 00:57:55;;;;;;;5.93;2.70;;;15.70;68.60;;;;;;5014075;28;20465;-86
2023/05/27 01:00:37;;;;;;;3.90;2.10;;;15.70;67.70;;;;;;5017502;28;20494;-85
2023/05/27 01:03:07;;;;;;;6.47;3.10;;;15.60;67.60;;;;;;5017141;28;20462;-81
2023/05/27 01:05:39;;;;;;;5.90;3.00;;;15.60;68.00;;;;;;5016042;28;20537;-85
2023/05/27 01:08:35;;;;;;;6.17;2.73;;;15.60;68.80;;;;;;5013182;28;20905;-85
2023/05/27 01:11:15;;;;;;;8.30;3.17;;;15.60;68.60;;;;;;5008731;28;20512;-83
2023/05/27 01:13:55;;;;;;;5.73;3.23;;;15.70;68.40;;;;;;5009946;28;20477;-84
2023/05/27 01:20:19;;;;;;;6.53;3.13;;;15.60;69.30;;;;;;5004929;28;20488;-84
2023/05/27 01:23:13;;;;;;;5.87;2.90;;;15.50;70.30;;;;;;5001318;28;20447;-84
2023/05/27 01:26:22;;;;;;;8.80;2.93;;;15.50;69.60;;;;;;5020796;28;20474;-84
2023/05/27 01:29:17;;;;;;;8.53;3.23;;;15.40;69.90;;;;;;5011098;28;20470;-85
2023/05/27 01:31:54;;;;;;;5.37;3.00;;;15.30;70.30;;;;;;5014854;28;20450;-85
2023/05/27 01:34:46;;;;;;;8.53;2.93;;;15.30;71.10;;;;;;5030501;28;20458;-81
2023/05/27 01:37:37;;;;;;;8.50;3.00;;;15.50;71.30;;;;;;5028380;28;20471;-81
2023/05/27 01:40:18;;;;;;;7.90;3.00;;;15.20;71.50;;;;;;5016122;28;20508;-83
2023/05/27 01:42:55;;;;;;;6.70;2.30;;;15.10;72.10;;;;;;5018346;28;20453;-83
2023/05/27 01:45:41;;;;;;;5.10;2.43;;;15.10;72.70;;;;;;5017534;28;20497;-84
2023/05/27 01:48:40;;;;;;;3.50;2.23;;;15.30;72.40;;;;;;5008302;28;20479;-84
2023/05/27 01:51:45;;;;;;;8.60;2.97;;;15.20;72.10;;;;;;5016487;28;20456;-83
2023/05/27 01:54:17;;;;;;;7.73;2.97;;;15.10;72.60;;;;;;5015295;28;20513;-85
2023/05/27 01:56:57;;;;;;;4.30;3.30;;;15.10;73.40;;;;;;5016798;28;20532;-85
2023/05/27 01:59:42;;;;;;;;;;;;;;;;;;;;;
2023/05/27 02:02:48;;;;;;;10.17;2.80;;;15.00;73.90;;;;;;5006837;28;20466;-83
2023/05/27 02:05:31;;;;;;;6.63;2.80;;;15.10;73.50;;;;;;5012861;28;20494;-81
2023/05/27 02:11:15;;;;;;;5.50;2.90;;;15.10;73.90;;;;;;4979062;28;20676;-84
2023/05/27 02:13:56;;;;;;;4.20;2.60;;;15.20;74.20;;;;;;5001760;28;20443;-84
2023/05/27 02:16:33;;;;;;;8.50;2.90;;;15.10;74.50;;;;;;5011477;28;20474;-85
2023/05/27 02:19:27;;;;;;;3.37;2.13;;;14.90;75.00;;;;;;5008637;28;20906;-83
2023/05/27 02:22:02;;;;;;;6.63;2.50;;;14.80;76.10;;;;;;5005773;28;20450;-82
2023/05/27 02:27:29;;;;;;;8.70;3.90;;;14.80;77.30;;;;;;5037333;28;20491;-83
2023/05/27 02:29:55;;;;;;;6.50;3.00;;;14.70;77.40;;;;;;5039258;28;20440;-81
2023/05/27 02:32:22;;;;;;;6.37;2.87;;;14.80;76.80;;;;;;5037232;28;20445;-82
2023/05/27 02:34:50;;;;;;;8.13;2.90;;;14.70;76.80;;;;;;5031715;28;20477;-80
2023/05/27 02:37:27;;;;;;;5.17;2.50;;;14.70;77.10;;;;;;5037435;28;20518;-83
2023/05/27 02:40:05;;;;;;;7.13;2.70;;;14.60;77.10;;;;;;5035719;28;20463;-82
2023/05/27 02:42:48;;;;;;;7.20;2.30;;;14.60;77.00;;;;;;5025873;28;20480;-83
2023/05/27 02:45:35;;;;;;;5.97;2.67;;;14.40;77.30;;;;;;5023904;28;20453;-83
2023/05/27 02:48:10;;;;;;;4.73;2.30;;;14.40;77.30;;;;;;5043948;28;21024;-83
2023/05/27 02:51:23;;;;;;;6.23;2.43;;;14.50;76.70;;;;;;5033334;28;20445;-83
2023/05/27 02:54:34;;;;;;;;;;;;;;;;;;;;;
2023/05/27 02:57:39;;;;;;;7.87;3.50;;;14.60;77.70;;;;;;4956171;28;20444;-83
2023/05/27 03:00:14;;;;;;;3.90;2.50;;;14.60;78.40;;;;;;5025761;28;20441;-82
2023/05/27 03:02:48;;;;;;;8.17;3.17;;;14.70;78.30;;;;;;5030139;28;20488;-82
2023/05/27 03:05:59;;;;;;;8.77;3.13;;;14.60;78.90;;;;;;5022461;28;20476;-84
2023/05/27 03:08:37;;;;;;;3.93;2.23;;;14.40;79.50;;;;;;5042472;28;20532;-82
2023/05/27 03:11:31;;;;;;;9.00;3.00;;;14.40;80.10;;;;;;5028912;28;20500;-83
2023/05/27 03:13:58;;;;;;;4.63;2.50;;;14.20;80.60;;;;;;5036206;28;20457;-85
2023/05/27 03:16:31;;;;;;;6.33;3.27;;;14.20;81.30;;;;;;5029720;28;20810;-85
2023/05/27 03:19:08;;;;;;;5.17;2.93;;;14.10;81.80;;;;;;5029545;28;20477;-82
2023/05/27 03:22:08;;;;;;;6.73;2.80;;;14.20;81.60;;;;;;5025231;28;20932;-81
2023/05/27 03:25:01;;;;;;;3.40;2.03;;;14.10;81.60;;;;;;5023527;28;20458;-83
2023/05/27 03:27:45;;;;;;;6.37;2.63;;;14.00;82.30;;;;;;5034210;28;21022;-83
2023/05/27 03:30:40;;;;;;;6.80;2.90;;;14.10;82.50;;;;;;5031632;28;20538;-84
2023/05/27 03:33:25;;;;;;;4.37;3.10;;;14.00;82.40;;;;;;5021600;28;20445;-84
2023/05/27 03:36:43;;;;;;;6.17;2.70;;;14.00;83.20;;;;;;5035268;28;20564;-84
2023/05/27 03:39:36;;;;;;;9.13;2.40;;;14.00;83.70;;;;;;4952649;28;20463;-83
2023/05/27 03:42:35;;;;;;;5.90;2.47;;;14.00;84.10;;;;;;4960343;28;20452;-82
2023/05/27 03:45:17;;;;;;;5.17;2.87;;;14.00;84.40;;;;;;4946877;28;20540;-83
2023/05/27 03:47:56;;;;;;;9.90;2.80;;;14.00;83.70;;;;;;4953940;28;20444;-83
2023/05/27 03:50:33;;;;;;;8.70;3.10;;;14.00;84.10;;;;;;4956259;28;20444;-85
2023/05/27 03:53:15;;;;;;;7.43;2.70;;;14.10;82.60;;;;;;4955052;28;20524;-84
2023/05/27 03:55:45;;;;;;;8.20;2.90;;;14.00;83.20;;;;;;4964707;28;20484;-83
2023/05/27 03:58:32;;;;;;;5.20;3.10;;;13.90;83.10;;;;;;4978789;28;20448;-83
2023/05/27 04:00:59;;;;;;;6.77;3.60;;;13.80;82.90;;;;;;4976468;28;20448;-82
2023/05/27 04:03:32;;;;;;;5.23;2.20;;;14.00;83.70;;;;;;4955626;28;20453;-84
2023/05/27 04:06:02;;;;;;;7.57;2.80;;;14.10;83.00;;;;;;4956155;28;20587;-82
2023/05/27 04:08:37;;;;;;;5.00;2.50;;;14.00;83.20;;;;;;4952447;28;20480;-84
2023/05/27 04:11:12;;;;;;;4.60;2.77;;;14.00;83.50;;;;;;4952617;28;20449;-82
2023/05/27 04:13:48;;;;;;;3.60;2.50;;;13.80;84.00;;;;;;4950106;28;20492;-82
2023/05/27 04:16:16;;;;;;;7.00;2.40;;;13.70;85.00;;;;;;4975108;28;20473;-82
2023/05/27 04:18:48;;;;;;;5.17;2.40;;;13.70;86.00;;;;;;5035139;28;20514;-81
2023/05/27 04:21:24;;;;;;;8.93;3.17;;;13.80;86.40;;;;;;5033142;28;20457;-86
2023/05/27 04:23:54;;;;;;;7.40;3.03;;;13.80;87.00;;;;;;5033019;28;20483;-84
2023/05/27 04:26:24;;;;;;;14.20;2.70;;;13.80;87.30;;;;;;5031110;28;20465;-83
2023/05/27 04:29:12;;;;;;;5.77;2.50;;;13.70;87.20;;;;;;5029507;28;20473;-85
2023/05/27 04:31:54;;;;;;;6.40;2.67;;;13.80;87.40;;;;;;5037681;28;20480;-84
2023/05/27 04:34:32;;;;;;;6.57;2.47;;;13.90;86.70;;;;;;5045791;28;20515;-83
2023/05/27 04:37:09;;;;;;;4.63;2.50;;;13.80;86.30;;;;;;5055651;28;20535;-81
2023/05/27 04:40:10;;;;;;;6.27;2.47;;;13.80;86.70;;;;;;5047968;28;20517;-85
2023/05/27 04:42:43;;;;;;;9.03;3.40;;;13.90;86.40;;;;;;5035598;28;20465;-85
2023/05/27 04:45:21;;;;;;;10.23;3.20;;;13.90;85.70;;;;;;5045033;28;20498;-83
2023/05/27 04:47:50;;;;;;;5.47;2.90;;;13.90;85.90;;;;;;5045922;28;20461;-84
2023/05/27 04:50:20;;;;;;;6.57;2.83;;;14.00;85.80;;;;;;5048777;28;20563;-84
2023/05/27 04:52:50;;;;;;;4.23;2.53;;;14.10;85.40;;;;;;5042185;28;20449;-82
2023/05/27 04:55:33;;;;;;;5.37;3.20;;;14.10;85.10;;;;;;5044598;28;20508;-82
2023/05/27 04:58:05;;;;;;;7.47;2.93;;;14.10;84.60;;;;;;5040894;28;20464;-84
2023/05/27 05:00:56;;;;;;;4.03;2.47;;;14.00;84.60;;;;;;5052291;28;20474;-83
2023/05/27 05:03:36;;;;;;;15.87;3.33;;;14.10;84.60;;;;;;5039314;28;20453;-84
2023/05/27 05:06:10;;;;;;;7.37;3.07;;;14.10;84.60;;;;;;5035541;28;20489;-81
2023/05/27 05:08:40;;;;;;;6.97;3.00;;;14.00;84.70;;;;;;5047293;28;20465;-80
2023/05/27 05:11:55;;;;;;;;;;;;;;;;;;;;;
2023/05/27 05:15:05;;;;;;;6.13;2.63;;;14.10;84.60;;;;;;5036413;28;20475;-85
2023/05/27 05:17:35;;;;;;;5.63;3.00;;;14.20;85.10;;;;;;5028813;28;20454;-84
2023/05/27 05:20:09;;;;;;;7.53;2.60;;;14.40;84.60;;;;;;5030895;28;20476;-85
2023/05/27 05:22:49;;;;;;;6.63;3.67;;;14.20;84.50;;;;;;5029669;28;20488;-85
2023/05/27 05:25:37;;;;;;;5.97;2.90;;;14.30;85.00;;;;;;5031598;28;20484;-84
2023/05/27 05:28:05;;;;;;;6.60;3.10;;;14.40;84.70;;;;;;5025248;28;20568;-84
2023/05/27 05:30:40;;;;;;;9.40;3.43;;;14.60;83.60;;;;;;5039009;28;20464;-83
2023/05/27 05:33:07;;;;;;;9.67;3.47;;;14.60;83.40;;;;;;5031033;28;20464;-85
2023/05/27 05:35:34;;;;;;;7.20;3.13;;;14.50;83.80;;;;;;5025387;28;20474;-84
2023/05/27 05:38:06;;;;;;;4.43;2.40;;;14.60;83.40;;;;;;5035571;28;20453;-83
2023/05/27 05:40:37;;;;;;;4.73;2.77;;;14.70;84.10;;;;;;5030075;28;20458;-84
2023/05/27 05:43:11;;;;;;;7.47;3.20;;;14.70;84.00;;;;;;5032016;28;20453;-83
2023/05/27 05:46:07;;;;;;;10.23;3.63;;;14.70;84.60;;;;;;5012681;28;20473;-84
2023/05/27 05:48:41;;;;;;;6.50;3.30;;;14.70;85.00;;;;;;5026562;28;21018;-83
2023/05/27 05:51:45;;;;;;;;;;;;;;;;;;;;;
2023/05/27 05:54:20;;;;;;;6.43;2.77;;;14.70;83.50;;;;;;5046582;28;20453;-84
2023/05/27 05:56:54;;;;;;;6.00;2.80;;;14.80;83.70;;;;;;5031164;28;20498;-84
2023/05/27 05:59:24;;;;;;;5.80;2.77;;;15.00;82.30;;;;;;5028286;28;21199;-84
2023/05/27 06:02:46;;;;;;;4.70;3.43;;;15.10;81.90;;;;;;5021978;28;20543;-84
2023/05/27 06:05:19;;;;;;;10.97;3.23;;;15.30;79.20;;;;;;5027955;28;20487;-86
2023/05/27 06:08:11;;;;;;;8.13;3.10;;;15.10;80.10;;;;;;5028951;28;20453;-85
2023/05/27 06:11:01;;;;;;;4.70;3.20;;;15.30;79.60;;;;;;5025294;28;20461;-82
2023/05/27 06:13:30;;;;;;;7.93;2.97;;;15.10;78.90;;;;;;5031692;28;20433;-82
2023/05/27 06:16:11;;;;;;;5.63;3.40;;;15.30;78.90;;;;;;5032224;28;20565;-84
2023/05/27 06:18:55;;;;;;;7.70;3.53;;;15.00;79.00;;;;;;5037365;28;20445;-81
2023/05/27 06:22:08;;;;;;;8.60;3.40;;;15.10;79.80;;;;;;5033244;28;20624;-85
2023/05/27 06:35:46;;;;;;;8.03;3.00;;;16.00;77.60;;;;;;1233378;22;20772;-82
2023/05/27 06:38:15;;;;;;;6.03;3.97;;;15.90;76.40;;;;;;5050025;28;20445;-82
2023/05/27 06:40:59;;;;;;;8.33;3.60;;;16.00;76.40;;;;;;5052636;28;20476;-83
2023/05/27 06:44:00;;;;;;;6.60;2.70;;;15.90;76.20;;;;;;5048273;28;20425;-83
2023/05/27 06:46:34;;;;;;;6.40;3.43;;;15.80;76.60;;;;;;5052397;28;20505;-82
2023/05/27 06:49:40;;;;;;;6.13;3.13;;;15.70;76.90;;;;;;5048239;28;20469;-82
2023/05/27 06:55:49;;;;;;;7.47;3.87;;;16.10;76.20;;;;;;5049772;28;20444;-82
2023/05/27 06:58:20;;;;;;;6.27;3.77;;;16.20;75.90;;;;;;5053503;28;20430;-82
2023/05/27 07:00:59;;;;;;;7.23;3.23;;;16.20;76.30;;;;;;5053837;28;20519;-81
2023/05/27 07:04:01;;;;;;;5.37;3.00;;;16.30;75.00;;;;;;5052324;28;20440;-81
2023/05/27 07:10:27;;;;;;;6.80;3.30;;;16.40;74.80;;;;;;5026620;28;20513;-82
2023/05/27 07:20:22;;;;;;;7.13;2.90;;;16.70;73.20;;;;;;5029425;28;20489;-84
2023/05/27 07:23:09;;;;;;;4.47;2.60;;;16.50;73.50;;;;;;5038766;28;20476;-83
2023/05/27 07:25:56;;;;;;;9.10;3.63;;;16.80;74.60;;;;;;5046218;28;20498;-84
2023/05/27 07:28:33;;;;;;;11.67;3.73;;;16.80;73.20;;;;;;5029195;28;20962;-83
2023/05/27 07:31:36;;;;;;;6.23;2.87;;;17.10;73.20;;;;;;5033277;28;20470;-82
2023/05/27 07:34:42;;;;;;;6.60;3.10;;;16.90;72.90;;;;;;5027127;28;20485;-83
2023/05/27 07:37:39;;;;;;;6.67;3.00;;;17.30;73.80;;;;;;5026095;28;20450;-85
2023/05/27 07:40:42;;;;;;;11.47;3.53;;;17.30;71.80;;;;;;5005181;28;20508;-84
2023/05/27 07:43:43;;;;;;;5.63;3.27;;;17.50;71.50;;;;;;5035557;28;20556;-83
2023/05/27 07:46:33;;;;;;;7.83;3.40;;;17.50;71.30;;;;;;5067611;22;20506;-82
2023/05/27 07:49:27;;;;;;;7.73;3.00;;;17.70;70.20;;;;;;5033043;28;20572;-84
2023/05/27 07:52:00;;;;;;;6.13;3.50;;;17.70;70.20;;;;;;5018624;28;20481;-85
2023/05/27 07:54:31;;;;;;;10.97;3.47;;;17.60;70.20;;;;;;5025204;28;20453;-85
2023/05/27 07:57:16;;;;;;;8.27;3.10;;;17.60;70.60;;;;;;5029459;28;20549;-85
2023/05/27 07:59:57;;;;;;;7.33;3.00;;;17.70;70.90;;;;;;5039734;28;20463;-83
2023/05/27 08:02:41;;;;;;;6.27;3.40;;;17.70;70.80;;;;;;5038899;28;20464;-84
2023/05/27 08:05:21;;;;;;;10.20;3.63;;;18.00;69.90;;;;;;5065740;23;20489;-84
2023/05/27 08:07:58;;;;;;;6.57;4.30;;;18.00;69.60;;;;;;5069703;28;20468;-83
2023/05/27 08:10:46;;;;;;;4.17;3.23;;;18.30;68.80;;;;;;5065488;28;20465;-82
2023/05/27 08:13:38;;;;;;;7.93;4.03;;;18.30;68.40;;;;;;5049539;28;20524;-84
2023/05/27 08:16:26;;;;;;;11.93;6.23;;;18.40;68.40;;;;;;5053451;28;20479;-85
2023/05/27 08:19:07;;;;;;;4.60;3.20;;;18.90;68.00;;;;;;5032114;28;20465;-83
2023/05/27 08:28:00;;;;;;;17.50;11.03;;;19.50;63.40;;;;;;5028735;28;20932;-84
2023/05/27 08:34:25;;;;;;;3.47;3.00;;;21.20;61.30;;;;;;5015623;28;20858;-82
2023/05/27 08:37:36;;;;;;;5.33;2.87;;;21.70;58.50;;;;;;5013792;28;20450;-85
2023/05/27 08:40:30;;;;;;;4.80;3.27;;;22.00;57.70;;;;;;5026736;28;20466;-84
2023/05/27 08:43:34;;;;;;;7.83;3.70;;;21.30;57.20;;;;;;5036488;28;20469;-80
2023/05/27 08:46:25;;;;;;;7.27;2.97;;;21.00;58.60;;;;;;4974186;28;20543;-84
2023/05/27 08:49:07;;;;;;;7.27;3.90;;;21.40;58.00;;;;;;5027215;28;20474;-84
2023/05/27 08:51:58;;;;;;;5.33;3.30;;;22.20;57.20;;;;;;5010861;28;20450;-86
2023/05/27 08:54:38;;;;;;;7.83;3.97;;;24.60;52.70;;;;;;5025893;28;20913;-85
2023/05/27 08:57:29;;;;;;;5.20;3.20;;;24.20;51.70;;;;;;5026274;28;20556;-85
2023/05/27 09:00:13;;;;;;;4.83;2.77;;;24.60;51.00;;;;;;5022180;28;20465;-84
2023/05/27 09:03:04;;;;;;;5.17;2.50;;;25.20;49.30;;;;;;5031790;28;20640;-84
2023/05/27 09:06:21;;;;;;;6.30;3.37;;;26.70;46.90;;;;;;5028531;28;21488;-84
2023/05/27 09:09:19;;;;;;;9.47;5.80;;;27.50;44.20;;;;;;5017062;28;20482;-83
2023/05/27 09:12:26;;;;;;;4.90;3.40;;;27.80;44.00;;;;;;5030719;28;20433;-83
2023/05/27 09:15:20;;;;;;;5.10;2.40;;;28.60;42.10;;;;;;5028598;28;20486;-85
2023/05/27 09:18:03;;;;;;;5.40;2.77;;;28.40;42.10;;;;;;5026922;28;20515;-83
2023/05/27 09:20:39;;;;;;;4.27;2.90;;;30.00;40.10;;;;;;5018206;28;20525;-84
2023/05/27 09:23:19;;;;;;;4.67;2.80;;;30.00;39.00;;;;;;5027179;28;20445;-84
2023/05/27 09:26:02;;;;;;;5.37;3.43;;;29.90;39.20;;;;;;5031480;28;20575;-84
2023/05/27 09:28:38;;;;;;;3.27;2.50;;;28.80;39.50;;;;;;5015447;28;20457;-85
2023/05/27 09:31:07;;;;;;;5.17;2.77;;;27.70;40.60;;;;;;5035552;28;20512;-84
2023/05/27 09:33:39;;;;;;;5.37;2.90;;;28.60;40.40;;;;;;5022922;28;20918;-84
2023/05/27 09:36:08;;;;;;;4.03;3.07;;;28.60;39.70;;;;;;5029830;28;21000;-84
2023/05/27 09:38:36;;;;;;;3.60;2.30;;;28.80;40.20;;;;;;5020716;28;21056;-84
2023/05/27 09:41:34;;;;;;;14.20;5.03;;;29.80;39.10;;;;;;5020849;28;20534;-84
2023/05/27 09:44:07;;;;;;;4.40;3.00;;;29.50;38.60;;;;;;5027688;28;20458;-84
2023/05/27 09:46:51;;;;;;;5.20;2.37;;;28.80;39.40;;;;;;5015216;28;20508;-84
2023/05/27 09:49:25;;;;;;;3.67;2.60;;;29.80;38.90;;;;;;5029046;28;20564;-84
2023/05/27 09:55:08;;;;;;;4.03;2.60;;;30.00;37.60;;;;;;5023355;28;21685;-83
2023/05/27 09:57:43;;;;;;;3.60;2.67;;;30.20;36.80;;;;;;5039875;28;20463;-85
2023/05/27 10:00:29;;;;;;;4.03;2.53;;;30.00;36.50;;;;;;5028000;28;20523;-83
2023/05/27 10:03:03;;;;;;;3.03;2.57;;;29.90;36.60;;;;;;5026483;28;20456;-82
2023/05/27 10:05:42;;;;;;;2.90;2.17;;;30.10;36.30;;;;;;5020540;28;20478;-84
2023/05/27 10:08:34;;;;;;;2.90;2.60;;;30.60;35.80;;;;;;5017363;28;20455;-84
2023/05/27 10:11:13;;;;;;;3.47;2.87;;;31.90;34.60;;;;;;5021440;28;20445;-85
2023/05/27 10:13:54;;;;;;;4.00;2.43;;;31.50;33.10;;;;;;5028989;28;20445;-86
2023/05/27 10:16:49;;;;;;;2.40;2.20;;;30.50;34.10;;;;;;5031530;28;20498;-84
2023/05/27 10:19:28;;;;;;;4.07;3.00;;;30.40;34.40;;;;;;5027673;28;20461;-84
2023/05/27 10:24:40;;;;;;;3.20;2.10;;;30.40;32.80;;;;;;4754099;26;20535;-85
2023/05/27 10:27:26;;;;;;;4.00;2.60;;;29.80;33.70;;;;;;4985312;28;20470;-84
2023/05/27 10:29:58;;;;;;;4.83;3.00;;;29.70;34.30;;;;;;4990310;28;20463;-85
2023/05/27 10:32:50;;;;;;;3.60;2.20;;;29.90;34.20;;;;;;4999946;28;20588;-83
2023/05/27 10:35:38;;;;;;;5.27;3.00;;;29.80;34.10;;;;;;4997541;28;20483;-83
2023/05/27 10:38:19;;;;;;;5.97;2.07;;;29.60;33.90;;;;;;4995150;28;20475;-83
2023/05/27 10:40:50;;;;;;;3.60;2.30;;;29.40;34.30;;;;;;5011909;28;20470;-83
2023/05/27 10:43:20;;;;;;;4.97;2.97;;;29.50;34.70;;;;;;5020843;28;20452;-83
2023/05/27 10:45:48;;;;;;;4.40;2.83;;;29.80;33.90;;;;;;4991024;28;20468;-84
2023/05/27 10:48:19;;;;;;;3.53;2.60;;;29.40;33.40;;;;;;5002226;28;20451;-84
2023/05/27 10:50:54;;;;;;;4.87;2.80;;;29.90;33.60;;;;;;4987817;28;21157;-83
2023/05/27 10:53:31;;;;;;;3.10;2.53;;;29.70;34.10;;;;;;4983291;28;20479;-82
2023/05/27 10:56:04;;;;;;;4.80;3.00;;;30.00;34.20;;;;;;4996392;28;20471;-84
2023/05/27 10:58:39;;;;;;;4.20;2.70;;;30.70;33.50;;;;;;5002764;28;20432;-85
2023/05/27 11:01:11;;;;;;;4.80;2.60;;;31.40;31.80;;;;;;4998229;28;20562;-84
2023/05/27 11:03:45;;;;;;;3.40;2.83;;;31.60;31.00;;;;;;4991693;28;20450;-84
2023/05/27 11:06:16;;;;;;;3.80;2.60;;;30.80;31.40;;;;;;4986502;28;20479;-84
2023/05/27 11:08:43;;;;;;;3.20;2.20;;;30.30;31.90;;;;;;5010808;28;20983;-85
2023/05/27 11:11:14;;;;;;;5.00;2.93;;;29.80;32.70;;;;;;4995388;28;20451;-84
2023/05/27 11:13:47;;;;;;;3.07;2.70;;;30.40;31.90;;;;;;4996011;28;20451;-84
2023/05/27 11:16:16;;;;;;;4.00;2.60;;;29.70;31.90;;;;;;5010432;28;20518;-83
2023/05/27 11:18:48;;;;;;;4.20;2.80;;;29.60;32.30;;;;;;4996337;28;20455;-83
2023/05/27 11:21:20;;;;;;;3.20;1.93;;;29.30;32.50;;;;;;4988447;28;20482;-84
2023/05/27 11:23:56;;;;;;;3.30;2.70;;;28.40;33.70;;;;;;4986270;28;20548;-85
2023/05/27 11:26:23;;;;;;;3.10;2.20;;;28.70;33.80;;;;;;4990265;28;20475;-84
2023/05/27 11:28:54;;;;;;;4.03;2.60;;;28.30;33.60;;;;;;5005997;28;20466;-84
2023/05/27 11:31:31;;;;;;;3.40;2.27;;;28.30;34.10;;;;;;5001692;28;20451;-85
2023/05/27 11:34:00;;;;;;;4.07;2.63;;;28.50;34.20;;;;;;4999769;28;20490;-85
2023/05/27 11:36:31;;;;;;;3.63;2.40;;;29.10;33.60;;;;;;5001140;28;20467;-84
2023/05/27 11:39:04;;;;;;;3.37;2.57;;;29.30;33.90;;;;;;5000272;28;20458;-85
2023/05/27 11:41:36;;;;;;;7.63;2.33;;;30.10;32.60;;;;;;4996465;28;20616;-85
2023/05/27 11:44:09;;;;;;;4.63;2.67;;;29.60;31.00;;;;;;5009606;28;20451;-85
2023/05/27 11:46:40;;;;;;;4.60;2.67;;;30.00;31.00;;;;;;4999471;28;20482;-85
2023/05/27 11:49:09;;;;;;;3.23;2.07;;;30.10;30.20;;;;;;5012959;28;20443;-87
2023/05/27 11:51:50;;;;;;;3.67;2.20;;;29.40;30.70;;;;;;5002051;28;20870;-85
2023/05/27 11:54:28;;;;;;;3.70;2.57;;;29.30;31.10;;;;;;5011834;28;20549;-85
2023/05/27 11:57:02;;;;;;;3.50;2.00;;;29.30;31.40;;;;;;5005727;28;20443;-84
2023/05/27 11:59:31;;;;;;;3.97;2.70;;;30.10;30.30;;;;;;5011950;28;20443;-83
2023/05/27 12:01:59;;;;;;;3.40;2.00;;;29.30;30.80;;;;;;5020408;28;20455;-83
2023/05/27 12:04:29;;;;;;;2.40;2.17;;;29.10;31.20;;;;;;5006817;28;20481;-83
2023/05/27 12:07:00;;;;;;;2.77;2.57;;;29.70;30.70;;;;;;5001329;28;20490;-83
2023/05/27 12:09:44;;;;;;;2.47;1.90;;;29.50;30.60;;;;;;5001218;28;20458;-85
2023/05/27 12:12:21;;;;;;;2.77;2.07;;;29.50;30.30;;;;;;4994978;28;20518;-85
2023/05/27 12:14:58;;;;;;;5.10;2.23;;;29.80;30.50;;;;;;4989896;28;20455;-82
2023/05/27 12:17:26;;;;;;;2.70;2.30;;;29.80;30.80;;;;;;4987197;28;20586;-86
2023/05/27 12:19:53;;;;;;;3.47;2.20;;;29.50;30.70;;;;;;4994987;28;20526;-84
2023/05/27 12:22:26;;;;;;;4.73;2.37;;;29.40;30.80;;;;;;4992724;28;20562;-84
2023/05/27 12:24:57;;;;;;;2.50;2.00;;;28.70;31.30;;;;;;4994241;28;20478;-84
2023/05/27 12:27:32;;;;;;;3.50;2.43;;;29.10;31.30;;;;;;4998956;28;20494;-84
2023/05/27 12:30:00;;;;;;;2.30;2.10;;;29.40;30.40;;;;;;4999351;28;20469;-85
2023/05/27 12:32:35;;;;;;;4.40;2.57;;;29.20;30.40;;;;;;5016421;28;20522;-85
2023/05/27 12:35:13;;;;;;;3.50;2.70;;;28.50;30.80;;;;;;4986030;28;20452;-84
2023/05/27 12:37:41;;;;;;;4.60;2.67;;;27.90;31.60;;;;;;4997669;28;20457;-86
2023/05/27 12:40:14;;;;;;;2.27;2.07;;;28.50;32.30;;;;;;4995650;28;20491;-84
2023/05/27 12:42:44;;;;;;;6.20;2.50;;;28.90;31.10;;;;;;5000291;28;20849;-85
2023/05/27 12:45:25;;;;;;;3.73;2.20;;;28.70;31.90;;;;;;5012276;28;20486;-85
2023/05/27 12:48:17;;;;;;;3.97;2.50;;;28.90;31.00;;;;;;4991850;28;20548;-85
2023/05/27 12:51:01;;;;;;;3.17;2.30;;;28.70;30.80;;;;;;5005833;28;20493;-85
2023/05/27 12:53:42;;;;;;;5.50;2.20;;;29.80;29.30;;;;;;4996990;28;21153;-82
2023/05/27 12:56:37;;;;;;;5.40;3.33;;;29.80;29.00;;;;;;5009197;28;20528;-83
2023/05/27 12:59:07;;;;;;;2.27;2.07;;;29.40;28.70;;;;;;4989396;28;20466;-82
2023/05/27 13:02:00;;;;;;;2.73;2.50;;;28.90;29.40;;;;;;4999056;28;20483;-84
2023/05/27 13:04:41;;;;;;;3.17;2.67;;;28.60;30.00;;;;;;4992952;28;20490;-84
2023/05/27 13:07:34;;;;;;;4.00;2.00;;;28.30;30.00;;;;;;5010577;28;20582;-83
2023/05/27 13:10:18;;;;;;;2.87;2.20;;;28.50;30.20;;;;;;4992573;28;20463;-84
2023/05/27 13:12:53;;;;;;;2.80;2.30;;;28.50;30.00;;;;;;5001955;28;20436;-83
2023/05/27 13:15:34;;;;;;;3.10;2.50;;;28.70;30.30;;;;;;5015951;28;20482;-83
2023/05/27 13:18:12;;;;;;;2.93;1.93;;;28.60;29.70;;;;;;4999924;28;20455;-83
2023/05/27 13:20:59;;;;;;;5.37;2.87;;;29.10;27.70;;;;;;5004652;28;20510;-83
2023/05/27 13:23:37;;;;;;;3.63;2.30;;;29.20;27.40;;;;;;5006568;28;21011;-87
2023/05/27 13:26:20;;;;;;;3.97;2.30;;;28.80;27.60;;;;;;4993843;28;20467;-86
2023/05/27 13:29:02;;;;;;;5.43;3.00;;;28.40;27.90;;;;;;4998239;28;20467;-86
2023/05/27 13:31:46;;;;;;;3.17;2.10;;;28.30;28.50;;;;;;4994983;28;20919;-84
2023/05/27 13:34:23;;;;;;;4.73;2.57;;;28.10;29.20;;;;;;4995354;28;20467;-84
2023/05/27 13:37:01;;;;;;;2.53;1.97;;;28.10;29.60;;;;;;4991568;28;20483;-83
2023/05/27 13:39:32;;;;;;;4.23;2.50;;;28.70;28.80;;;;;;4994552;28;20455;-85
2023/05/27 13:42:02;;;;;;;3.23;2.37;;;28.90;28.60;;;;;;4987510;28;20508;-82
2023/05/27 13:44:41;;;;;;;3.00;2.70;;;28.70;29.00;;;;;;4998673;28;20463;-83
2023/05/27 13:47:12;;;;;;;2.63;2.43;;;28.40;29.60;;;;;;5006675;28;20574;-84
2023/05/27 13:49:57;;;;;;;3.23;2.23;;;28.20;28.50;;;;;;4994760;28;20474;-84
2023/05/27 13:52:45;;;;;;;2.90;2.00;;;28.10;28.30;;;;;;4990532;28;20553;-84
2023/05/27 13:55:22;;;;;;;3.87;2.40;;;28.20;28.10;;;;;;5033830;22;20468;-84
2023/05/27 13:58:01;;;;;;;2.63;1.93;;;28.10;28.50;;;;;;5028991;28;20449;-84
2023/05/27 14:00:46;;;;;;;2.43;2.20;;;28.20;28.50;;;;;;5030232;28;20477;-85
2023/05/27 14:03:14;;;;;;;3.00;2.50;;;28.10;28.00;;;;;;5046398;28;20451;-84
2023/05/27 14:05:47;;;;;;;4.97;2.73;;;28.10;28.50;;;;;;5049322;28;20471;-81
2023/05/27 14:08:21;;;;;;;3.80;2.60;;;28.00;28.30;;;;;;5052995;28;20438;-81
2023/05/27 14:11:06;;;;;;;4.00;2.30;;;27.80;28.30;;;;;;5055009;28;20480;-85
2023/05/27 14:13:41;;;;;;;2.63;2.20;;;27.70;28.50;;;;;;5048688;28;20467;-85
2023/05/27 14:16:24;;;;;;;2.40;2.07;;;27.70;29.00;;;;;;5045184;28;20838;-84
2023/05/27 14:19:02;;;;;;;3.10;2.60;;;27.80;28.60;;;;;;5049928;28;20936;-83
2023/05/27 14:21:37;;;;;;;3.23;2.30;;;27.60;29.00;;;;;;5033467;28;20477;-83
2023/05/27 14:24:10;;;;;;;3.20;2.10;;;27.80;28.70;;;;;;5047418;28;20433;-83
2023/05/27 14:26:43;;;;;;;2.90;1.87;;;27.60;29.20;;;;;;5030399;28;20706;-84
2023/05/27 14:29:18;;;;;;;3.40;2.10;;;27.70;29.90;;;;;;5039024;28;20519;-84
2023/05/27 14:32:07;;;;;;;3.07;2.00;;;27.60;29.90;;;;;;5021255;28;20803;-84
2023/05/27 14:34:42;;;;;;;4.70;2.53;;;27.50;29.90;;;;;;5029574;28;21149;-85
2023/05/27 14:37:16;;;;;;;5.40;2.30;;;27.50;30.30;;;;;;5032254;28;20476;-85
2023/05/27 14:39:43;;;;;;;4.30;2.90;;;27.50;30.20;;;;;;5040320;28;20506;-83
2023/05/27 14:42:10;;;;;;;2.87;2.20;;;27.70;30.50;;;;;;5036972;28;20504;-84
2023/05/27 14:45:12;;;;;;;3.30;2.40;;;27.70;30.30;;;;;;5039576;28;20437;-86
2023/05/27 14:47:42;;;;;;;3.10;2.30;;;27.70;29.90;;;;;;5033397;28;20850;-85
2023/05/27 14:50:35;;;;;;;6.23;2.23;;;28.00;30.00;;;;;;5047845;28;20457;-82
2023/05/27 14:53:09;;;;;;;4.73;3.13;;;27.80;29.90;;;;;;5053450;28;20479;-85
2023/05/27 14:55:48;;;;;;;3.93;2.40;;;27.90;30.30;;;;;;5033014;28;20465;-85